createdAt,value
2023-11-21T00:00:38.247Z,7.94
2023-11-21T00:03:05.540Z,7.98
2023-11-21T00:05:32.692Z,7.99
2023-11-21T00:07:59.823Z,8.03
2023-11-21T00:10:27.870Z,8.05
2023-11-21T00:12:56.186Z,8.07
2023-11-21T00:15:23.310Z,8.09
2023-11-21T00:17:50.752Z,8.14
2023-11-21T00:20:17.946Z,8.16
2023-11-21T00:22:45.085Z,8.17
2023-11-21T00:25:16.233Z,8.19
2023-11-21T00:27:43.387Z,8.18
2023-11-21T00:30:11.351Z,8.18
2023-11-21T00:32:39.101Z,8.18
2023-11-21T00:35:07.100Z,8.19
2023-11-21T00:37:34.317Z,8.19
2023-11-21T00:40:05.946Z,8.19
2023-11-21T00:42:35.744Z,8.20
2023-11-21T00:45:03.275Z,8.22
2023-11-21T00:47:30.620Z,8.23
2023-11-21T00:49:58.028Z,8.26
2023-11-21T00:52:25.117Z,8.28
2023-11-21T00:54:52.825Z,8.27
2023-11-21T00:57:19.971Z,8.29
2023-11-21T00:59:46.916Z,8.28
2023-11-21T01:02:14.014Z,8.29
2023-11-21T01:04:41.251Z,8.28
2023-11-21T01:07:08.341Z,8.30
2023-11-21T01:09:35.403Z,8.31
2023-11-21T01:12:02.452Z,8.32
2023-11-21T01:14:29.567Z,8.34
2023-11-21T01:16:58.835Z,8.35
2023-11-21T01:19:26.125Z,8.35
2023-11-21T01:21:54.082Z,8.34
2023-11-21T01:24:21.053Z,8.36
2023-11-21T01:26:48.042Z,8.37
2023-11-21T01:29:16.174Z,8.39
2023-11-21T01:31:43.443Z,8.41
2023-11-21T01:34:10.652Z,8.41
2023-11-21T01:36:37.724Z,8.41
2023-11-21T01:39:09.459Z,8.42
2023-11-21T01:41:36.617Z,8.42
2023-11-21T01:44:04.049Z,8.43
2023-11-21T01:46:31.617Z,8.42
2023-11-21T01:48:58.668Z,8.42
2023-11-21T01:51:27.721Z,8.43
2023-11-21T01:53:55.266Z,8.40
2023-11-21T01:56:22.595Z,8.39
2023-11-21T01:58:49.745Z,8.38
2023-11-21T02:01:16.963Z,8.37
2023-11-21T02:03:44.187Z,8.38
2023-11-21T02:06:11.273Z,8.35
2023-11-21T02:08:39.063Z,8.34
2023-11-21T02:11:07.401Z,8.33
2023-11-21T02:13:34.558Z,8.33
2023-11-21T02:16:02.513Z,8.31
2023-11-21T02:18:30.045Z,8.31
2023-11-21T02:20:57.994Z,8.29
2023-11-21T02:23:29.802Z,8.28
2023-11-21T02:25:57.426Z,8.27
2023-11-21T02:28:27.315Z,8.27
2023-11-21T02:30:59.211Z,8.25
2023-11-21T02:33:26.614Z,8.24
2023-11-21T02:35:56.014Z,8.22
2023-11-21T02:38:23.335Z,8.19
2023-11-21T02:40:50.876Z,8.20
2023-11-21T02:43:18.131Z,8.18
2023-11-21T02:45:46.196Z,8.17
2023-11-21T02:48:13.831Z,8.16
2023-11-21T02:50:41.025Z,8.13
2023-11-21T02:53:08.366Z,8.13
2023-11-21T02:55:36.014Z,8.13
2023-11-21T02:58:04.993Z,8.13
2023-11-21T03:00:32.056Z,8.14
2023-11-21T03:02:59.504Z,8.09
2023-11-21T03:05:27.163Z,8.09
2023-11-21T03:07:54.218Z,8.04
2023-11-21T03:10:21.319Z,8.02
2023-11-21T03:12:48.428Z,8.05
2023-11-21T03:15:15.971Z,8.02
2023-11-21T03:17:44.156Z,8.01
2023-11-21T03:20:13.097Z,7.99
2023-11-21T03:22:40.252Z,7.99
2023-11-21T03:25:12.124Z,7.95
2023-11-21T03:27:40.218Z,7.92
2023-11-21T03:30:10.559Z,7.90
2023-11-21T03:32:38.223Z,7.91
2023-11-21T03:35:07.194Z,7.90
2023-11-21T03:37:34.583Z,7.89
2023-11-21T03:40:02.134Z,7.89
2023-11-21T03:42:29.199Z,7.87
2023-11-21T03:44:56.315Z,7.87
2023-11-21T03:47:23.636Z,7.88
2023-11-21T03:49:51.012Z,7.89
2023-11-21T03:52:18.581Z,7.89
2023-11-21T03:54:46.132Z,7.91
2023-11-21T03:57:13.401Z,7.89
2023-11-21T03:59:44.854Z,7.91
2023-11-21T04:02:11.942Z,7.90
2023-11-21T04:04:39.653Z,7.91
2023-11-21T04:07:06.794Z,7.87
2023-11-21T04:09:33.974Z,7.85
2023-11-21T04:12:01.114Z,7.87
2023-11-21T04:14:28.335Z,7.85
2023-11-21T04:16:56.237Z,7.83
2023-11-21T04:19:23.460Z,7.83
2023-11-21T04:21:50.991Z,7.82
2023-11-21T04:24:18.389Z,7.82
2023-11-21T04:26:46.293Z,7.81
2023-11-21T04:29:13.479Z,7.80
2023-11-21T04:31:40.625Z,7.80
2023-11-21T04:34:07.769Z,7.78
2023-11-21T04:36:36.057Z,7.80
2023-11-21T04:39:03.464Z,7.77
2023-11-21T04:41:32.590Z,7.77
2023-11-21T04:44:01.934Z,7.78
2023-11-21T04:46:29.374Z,7.76
2023-11-21T04:48:56.525Z,7.77
2023-11-21T04:51:23.600Z,7.78
2023-11-21T04:53:50.646Z,7.80
2023-11-21T04:56:17.672Z,7.79
2023-11-21T04:58:45.360Z,7.80
2023-11-21T05:01:13.084Z,7.78
2023-11-21T05:03:40.341Z,7.77
2023-11-21T05:06:10.506Z,7.77
2023-11-21T05:08:38.358Z,7.76
2023-11-21T05:11:05.667Z,7.76
2023-11-21T05:13:34.692Z,7.78
2023-11-21T05:16:05.191Z,7.76
2023-11-21T05:18:32.220Z,7.77
2023-11-21T05:20:59.446Z,7.74
2023-11-21T05:23:26.467Z,7.75
2023-11-21T05:25:53.658Z,7.74
2023-11-21T05:28:20.960Z,7.73
2023-11-21T05:32:26.358Z,7.71
2023-11-21T05:34:54.079Z,7.71
2023-11-21T05:37:21.218Z,7.70
2023-11-21T05:39:48.278Z,7.69
2023-11-21T05:42:15.285Z,7.67
2023-11-21T05:44:44.559Z,7.67
2023-11-21T05:47:11.724Z,7.66
2023-11-21T05:49:38.762Z,7.65
2023-11-21T05:52:06.574Z,7.65
2023-11-21T05:54:33.938Z,7.66
2023-11-21T05:57:01.040Z,7.64
2023-11-21T05:59:28.109Z,7.64
2023-11-21T06:01:55.211Z,7.64
2023-11-21T06:06:53.916Z,7.67
2023-11-21T06:09:21.905Z,7.70
2023-11-21T06:11:48.947Z,7.74
2023-11-21T06:14:19.193Z,7.72
2023-11-21T06:16:46.539Z,7.74
2023-11-21T06:19:13.709Z,7.77
2023-11-21T06:21:40.798Z,7.80
2023-11-21T06:24:08.391Z,7.81
2023-11-21T06:26:35.663Z,7.75
2023-11-21T06:29:04.227Z,7.73
2023-11-21T06:31:31.662Z,7.70
2023-11-21T06:34:00.841Z,7.68
2023-11-21T06:36:28.054Z,7.68
2023-11-21T06:38:55.072Z,7.67
2023-11-21T06:41:24.733Z,7.67
2023-11-21T06:43:51.902Z,7.69
2023-11-21T06:46:20.952Z,7.70
2023-11-21T06:48:49.784Z,7.69
2023-11-21T06:51:16.943Z,7.68
2023-11-21T06:53:44.639Z,7.68
2023-11-21T06:56:21.251Z,7.67
2023-11-21T06:58:48.507Z,7.64
2023-11-21T07:01:16.185Z,7.67
2023-11-21T07:03:45.550Z,7.66
2023-11-21T07:06:12.771Z,7.66
2023-11-21T07:08:39.776Z,7.67
2023-11-21T07:11:08.441Z,7.65
2023-11-21T07:13:35.433Z,7.65
2023-11-21T07:16:02.609Z,7.65
2023-11-21T07:18:29.658Z,7.65
2023-11-21T07:20:59.954Z,7.67
2023-11-21T07:23:28.786Z,7.67
2023-11-21T07:25:55.975Z,7.67
2023-11-21T07:28:24.581Z,7.69
2023-11-21T07:30:51.643Z,7.69
2023-11-21T07:33:18.810Z,7.70
2023-11-21T07:35:45.841Z,7.70
2023-11-21T07:38:12.835Z,7.71
2023-11-21T07:40:44.641Z,7.72
2023-11-21T07:43:11.672Z,7.74
2023-11-21T07:45:38.783Z,7.76
2023-11-21T07:48:08.304Z,7.77
2023-11-21T07:50:35.255Z,7.79
2023-11-21T07:53:02.356Z,7.79
2023-11-21T07:55:33.243Z,7.81
2023-11-21T07:58:00.961Z,7.82
2023-11-21T08:00:31.320Z,7.84
2023-11-21T08:02:59.406Z,7.84
2023-11-21T08:05:32.818Z,7.88
2023-11-21T08:08:07.280Z,7.91
2023-11-21T08:10:34.843Z,7.94
2023-11-21T08:13:02.955Z,7.95
2023-11-21T08:15:30.123Z,7.98
2023-11-21T08:18:00.103Z,7.98
2023-11-21T08:20:27.332Z,7.98
2023-11-21T08:22:54.430Z,7.98
2023-11-21T08:25:21.707Z,7.98
2023-11-21T08:27:49.014Z,7.99
2023-11-21T08:30:18.027Z,8.00
2023-11-21T08:32:45.141Z,8.00
2023-11-21T08:35:13.484Z,8.02
2023-11-21T08:37:40.869Z,8.01
2023-11-21T08:40:13.545Z,8.00
2023-11-21T08:42:40.613Z,7.98
2023-11-21T08:45:10.042Z,7.99
2023-11-21T08:47:37.726Z,7.99
2023-11-21T08:50:07.295Z,8.00
2023-11-21T08:52:35.620Z,8.05
2023-11-21T08:55:08.777Z,8.11
2023-11-21T08:57:47.598Z,8.18
2023-11-21T09:00:17.889Z,8.28
2023-11-21T09:02:46.139Z,8.35
2023-11-21T09:05:15.262Z,8.40
2023-11-21T09:07:43.677Z,8.42
2023-11-21T09:10:11.588Z,8.42
2023-11-21T09:12:39.473Z,8.44
2023-11-21T09:15:08.877Z,8.47
2023-11-21T09:17:36.471Z,8.52
2023-11-21T09:20:06.569Z,8.60
2023-11-21T09:22:34.538Z,8.69
2023-11-21T09:25:01.750Z,8.74
2023-11-21T09:27:28.758Z,8.77
2023-11-21T09:29:56.390Z,8.82
2023-11-21T09:32:23.491Z,8.83
2023-11-21T09:34:51.556Z,8.89
2023-11-21T09:37:20.162Z,8.96
2023-11-21T09:39:49.084Z,9.02
2023-11-21T09:42:31.457Z,9.06
2023-11-21T09:45:19.051Z,9.11
2023-11-21T09:47:47.805Z,9.14
2023-11-21T09:50:20.072Z,9.15
2023-11-21T09:53:11.946Z,9.16
2023-11-21T09:55:43.205Z,9.17
2023-11-21T09:58:13.222Z,9.16
2023-11-21T10:00:48.774Z,9.14
2023-11-21T10:03:17.326Z,9.17
2023-11-21T10:05:47.383Z,9.17
2023-11-21T10:08:15.257Z,9.14
2023-11-21T10:10:49.755Z,9.12
2023-11-21T10:13:19.502Z,9.08
2023-11-21T10:15:52.571Z,9.10
2023-11-21T10:18:20.626Z,9.10
2023-11-21T10:20:53.440Z,9.11
2023-11-21T10:23:24.144Z,9.17
2023-11-21T10:25:54.197Z,9.22
2023-11-21T10:28:22.702Z,9.21
2023-11-21T10:30:50.078Z,9.25
2023-11-21T10:33:17.850Z,9.29
2023-11-21T10:35:54.758Z,9.36
2023-11-21T10:38:24.432Z,9.42
2023-11-21T10:40:52.365Z,9.48
2023-11-21T10:43:19.856Z,9.53
2023-11-21T10:45:47.415Z,9.57
2023-11-21T10:48:19.199Z,9.58
2023-11-21T10:50:48.566Z,9.54
2023-11-21T10:53:16.390Z,9.49
2023-11-21T10:55:45.889Z,9.45
2023-11-21T10:58:15.829Z,9.46
2023-11-21T11:00:46.430Z,9.48
2023-11-21T11:03:16.849Z,9.49
2023-11-21T11:05:53.349Z,9.49
2023-11-21T11:08:28.296Z,9.46
2023-11-21T11:10:57.122Z,9.48
2023-11-21T11:13:25.373Z,9.55
2023-11-21T11:16:03.410Z,9.64
2023-11-21T11:18:31.134Z,9.67
2023-11-21T11:21:45.062Z,9.76
2023-11-21T11:24:51.729Z,9.85
2023-11-21T11:27:49.734Z,9.90
2023-11-21T11:31:18.304Z,9.94
2023-11-21T11:34:05.284Z,10.03
2023-11-21T11:36:50.274Z,10.01
2023-11-21T11:39:36.567Z,10.00
2023-11-21T11:42:09.196Z,9.96
2023-11-21T11:44:48.771Z,9.95
2023-11-21T11:47:34.083Z,10.00
2023-11-21T11:50:19.114Z,9.97
2023-11-21T11:52:49.916Z,9.99
2023-11-21T11:55:19.496Z,10.08
2023-11-21T12:00:27.562Z,9.99
2023-11-21T12:03:00.557Z,9.96
2023-11-21T12:05:34.117Z,9.91
2023-11-21T12:08:04.952Z,9.81
2023-11-21T12:10:38.209Z,9.73
2023-11-21T12:13:11.339Z,9.71
2023-11-21T12:15:40.667Z,9.72
2023-11-21T12:18:08.865Z,9.73
2023-11-21T12:20:40.360Z,9.70
2023-11-21T12:23:10.748Z,9.73
2023-11-21T12:25:38.540Z,9.69
2023-11-21T12:28:07.123Z,9.66
2023-11-21T12:30:39.103Z,9.62
2023-11-21T12:33:10.117Z,9.60
2023-11-21T12:35:37.779Z,9.64
2023-11-21T12:38:06.484Z,9.60
2023-11-21T12:40:33.906Z,9.66
2023-11-21T12:43:06.128Z,9.67
2023-11-21T12:45:33.871Z,9.73
2023-11-21T12:48:08.463Z,9.82
2023-11-21T12:50:37.687Z,9.86
2023-11-21T12:53:13.918Z,9.92
2023-11-21T12:55:43.373Z,9.95
2023-11-21T12:58:12.788Z,9.92
2023-11-21T13:00:44.661Z,9.94
2023-11-21T13:03:18.499Z,9.90
2023-11-21T13:05:53.183Z,9.85
2023-11-21T13:08:24.061Z,9.81
2023-11-21T13:10:58.677Z,9.83
2023-11-21T13:13:30.196Z,9.88
2023-11-21T13:16:07.223Z,9.96
2023-11-21T13:18:34.724Z,9.95
2023-11-21T13:21:16.761Z,9.92
2023-11-21T13:23:47.096Z,9.90
2023-11-21T13:26:15.853Z,9.86
2023-11-21T13:28:47.697Z,9.82
2023-11-21T13:31:28.223Z,9.83
2023-11-21T13:34:05.502Z,9.76
2023-11-21T13:36:36.251Z,9.80
2023-11-21T13:39:09.847Z,9.75
2023-11-21T13:41:39.260Z,9.67
2023-11-21T13:44:28.337Z,9.61
2023-11-21T13:46:58.665Z,9.56
2023-11-21T13:49:27.790Z,9.55
2023-11-21T13:51:56.354Z,9.54
2023-11-21T13:54:26.000Z,9.51
2023-11-21T13:56:53.091Z,9.43
2023-11-21T13:59:26.478Z,9.39
2023-11-21T14:01:57.989Z,9.39
2023-11-21T14:04:33.968Z,9.38
2023-11-21T14:07:12.112Z,9.32
2023-11-21T14:09:45.286Z,9.28
2023-11-21T14:12:14.458Z,9.29
2023-11-21T14:14:41.664Z,9.26
2023-11-21T14:17:08.838Z,9.26
2023-11-21T14:19:40.071Z,9.24
2023-11-21T14:22:11.014Z,9.26
2023-11-21T14:24:38.534Z,9.25
2023-11-21T14:27:06.650Z,9.30
2023-11-21T14:29:39.746Z,9.26
2023-11-21T14:32:09.024Z,9.23
2023-11-21T14:34:36.452Z,9.21
2023-11-21T14:37:06.811Z,9.19
2023-11-21T14:39:38.977Z,9.20
2023-11-21T14:42:09.022Z,9.21
2023-11-21T14:44:39.864Z,9.17
2023-11-21T14:47:14.094Z,9.19
2023-11-21T14:49:54.536Z,9.18
2023-11-21T14:52:35.212Z,9.20
2023-11-21T14:55:25.928Z,9.24
2023-11-21T14:57:53.140Z,9.27
2023-11-21T15:00:34.077Z,9.29
2023-11-21T15:03:03.079Z,9.30
2023-11-21T15:05:30.843Z,9.30
2023-11-21T15:08:12.199Z,9.30
2023-11-21T15:10:47.065Z,9.29
2023-11-21T15:13:15.987Z,9.28
2023-11-21T15:15:43.839Z,9.28
2023-11-21T15:18:13.541Z,9.29
2023-11-21T15:20:42.485Z,9.28
2023-11-21T15:23:10.315Z,9.29
2023-11-21T15:25:37.518Z,9.26
2023-11-21T15:28:05.868Z,9.20
2023-11-21T15:30:34.252Z,9.09
2023-11-21T15:33:04.594Z,9.04
2023-11-21T15:35:33.714Z,8.99
2023-11-21T15:38:01.109Z,8.96
2023-11-21T15:40:28.455Z,8.95
2023-11-21T15:42:55.564Z,8.96
2023-11-21T15:45:25.633Z,8.90
2023-11-21T15:47:54.769Z,8.88
2023-11-21T15:50:22.262Z,8.84
2023-11-21T15:52:57.170Z,8.82
2023-11-21T15:55:26.962Z,8.76
2023-11-21T15:57:54.192Z,8.77
2023-11-21T16:00:23.819Z,8.74
2023-11-21T16:02:51.574Z,8.74
2023-11-21T16:05:19.219Z,8.72
2023-11-21T16:07:48.231Z,8.75
2023-11-21T16:10:18.581Z,8.74
2023-11-21T16:12:46.103Z,8.71
2023-11-21T16:15:13.319Z,8.67
2023-11-21T16:17:42.907Z,8.67
2023-11-21T16:20:13.650Z,8.60
2023-11-21T16:22:41.965Z,8.53
2023-11-21T16:25:13.582Z,8.44
2023-11-21T16:27:41.818Z,8.35
2023-11-21T16:30:13.098Z,8.21
2023-11-21T16:32:42.656Z,8.12
2023-11-21T16:35:12.755Z,8.06
2023-11-21T16:37:40.653Z,8.05
2023-11-21T16:40:10.207Z,8.01
2023-11-21T16:42:39.607Z,8.01
2023-11-21T16:45:09.068Z,8.00
2023-11-21T16:47:36.529Z,7.93
2023-11-21T16:50:04.646Z,7.92
2023-11-21T16:52:32.554Z,7.83
2023-11-21T16:55:03.760Z,7.83
2023-11-21T16:57:34.382Z,7.77
2023-11-21T17:00:05.173Z,7.74
2023-11-21T17:02:32.263Z,7.74
2023-11-21T17:04:59.708Z,7.70
2023-11-21T17:07:27.442Z,7.73
2023-11-21T17:09:54.442Z,7.68
2023-11-21T17:12:21.449Z,7.61
2023-11-21T17:14:50.322Z,7.59
2023-11-21T17:17:18.012Z,7.56
2023-11-21T17:19:45.591Z,7.58
2023-11-21T17:22:13.151Z,7.54
2023-11-21T17:24:40.233Z,7.53
2023-11-21T17:27:07.373Z,7.51
2023-11-21T17:29:34.482Z,7.51
2023-11-21T17:32:01.595Z,7.48
2023-11-21T17:34:28.611Z,7.44
2023-11-21T17:36:56.815Z,7.42
2023-11-21T17:39:24.554Z,7.40
2023-11-21T17:41:51.657Z,7.35
2023-11-21T17:44:18.848Z,7.30
2023-11-21T17:46:46.005Z,7.26
2023-11-21T17:49:13.416Z,7.17
2023-11-21T17:51:42.364Z,7.11
2023-11-21T17:54:09.912Z,7.02
2023-11-21T17:56:37.427Z,6.93
2023-11-21T17:59:05.519Z,6.85
2023-11-21T18:01:40.634Z,6.84
2023-11-21T18:04:08.297Z,6.77
2023-11-21T18:06:35.485Z,6.71
2023-11-21T18:09:04.529Z,6.65
2023-11-21T18:11:31.872Z,6.61
2023-11-21T18:13:59.077Z,6.50
2023-11-21T18:16:26.357Z,6.44
2023-11-21T18:18:53.426Z,6.37
2023-11-21T18:21:20.677Z,6.32
2023-11-21T18:23:47.775Z,6.26
2023-11-21T18:26:19.014Z,6.24
2023-11-21T18:28:46.846Z,6.22
2023-11-21T18:31:16.021Z,6.15
2023-11-21T18:33:43.533Z,6.12
2023-11-21T18:36:10.772Z,6.11
2023-11-21T18:38:39.871Z,6.08
2023-11-21T18:41:07.136Z,6.05
2023-11-21T18:43:35.711Z,6.02
2023-11-21T18:46:04.810Z,6.04
2023-11-21T18:48:31.901Z,6.05
2023-11-21T18:50:58.985Z,6.05
2023-11-21T18:53:29.375Z,6.07
2023-11-21T18:55:57.959Z,6.13
2023-11-21T18:58:25.289Z,6.15
2023-11-21T19:00:53.140Z,6.16
2023-11-21T19:03:20.704Z,6.20
2023-11-21T19:05:47.807Z,6.22
2023-11-21T19:08:14.993Z,6.21
2023-11-21T19:10:42.839Z,6.28
2023-11-21T19:13:10.027Z,6.30
2023-11-21T19:15:37.337Z,6.31
2023-11-21T19:18:04.759Z,6.28
2023-11-21T19:20:33.348Z,6.24
2023-11-21T19:23:00.479Z,6.16
2023-11-21T19:25:27.439Z,6.08
2023-11-21T19:27:54.418Z,5.99
2023-11-21T19:30:21.505Z,5.94
2023-11-21T19:32:49.970Z,5.88
2023-11-21T19:35:21.075Z,5.82
2023-11-21T19:37:48.646Z,5.77
2023-11-21T19:40:23.666Z,5.70
2023-11-21T19:42:51.184Z,5.64
2023-11-21T19:45:20.052Z,5.58
2023-11-21T19:47:47.113Z,5.57
2023-11-21T19:50:14.408Z,5.53
2023-11-21T19:52:43.532Z,5.48
2023-11-21T19:55:11.322Z,5.41
2023-11-21T19:57:40.037Z,5.36
2023-11-21T20:00:12.516Z,5.32
2023-11-21T20:02:43.481Z,5.29
2023-11-21T20:05:16.703Z,5.26
2023-11-21T20:07:44.222Z,5.23
2023-11-21T20:10:11.651Z,5.20
2023-11-21T20:12:38.762Z,5.17
2023-11-21T20:15:07.079Z,5.15
2023-11-21T20:17:34.250Z,5.15
2023-11-21T20:20:01.423Z,5.11
2023-11-21T20:22:28.498Z,5.09
2023-11-21T20:24:55.508Z,5.11
2023-11-21T20:27:22.534Z,5.11
2023-11-21T20:29:49.735Z,5.11
2023-11-21T20:32:17.980Z,5.10
2023-11-21T20:34:51.768Z,5.07
2023-11-21T20:37:18.847Z,5.11
2023-11-21T20:39:47.282Z,5.09
2023-11-21T20:42:16.464Z,5.03
2023-11-21T20:44:43.456Z,4.97
2023-11-21T20:47:12.632Z,4.96
2023-11-21T20:49:48.004Z,4.91
2023-11-21T20:52:16.262Z,4.90
2023-11-21T20:54:43.262Z,4.85
2023-11-21T20:57:11.057Z,4.79
2023-11-21T20:59:38.197Z,4.74
2023-11-21T21:02:07.436Z,4.70
2023-11-21T21:04:34.606Z,4.67
2023-11-21T21:07:01.620Z,4.62
2023-11-21T21:09:28.661Z,4.58
2023-11-21T21:11:55.738Z,4.55
2023-11-21T21:14:24.937Z,4.51
2023-11-21T21:16:51.970Z,4.45
2023-11-21T21:19:19.550Z,4.39
2023-11-21T21:21:46.943Z,4.35
2023-11-21T21:24:14.064Z,4.30
2023-11-21T21:26:41.409Z,4.23
2023-11-21T21:29:09.868Z,4.15
2023-11-21T21:31:37.358Z,4.10
2023-11-21T21:34:04.834Z,4.03
2023-11-21T21:36:33.188Z,4.01
2023-11-21T21:39:00.791Z,3.97
2023-11-21T21:41:27.836Z,3.97
2023-11-21T21:43:54.929Z,3.94
2023-11-21T21:46:22.263Z,3.90
2023-11-21T21:48:49.360Z,3.86
2023-11-21T21:51:18.212Z,3.84
2023-11-21T21:53:46.741Z,3.80
2023-11-21T21:56:14.845Z,3.77
2023-11-21T21:58:42.216Z,3.74
2023-11-21T22:01:09.756Z,3.69
2023-11-21T22:03:37.434Z,3.65
2023-11-21T22:06:05.404Z,3.62
2023-11-21T22:08:34.453Z,3.55
2023-11-21T22:11:03.363Z,3.49
2023-11-21T22:13:30.384Z,3.46
2023-11-21T22:15:59.395Z,3.45
2023-11-21T22:18:26.436Z,3.40
2023-11-21T22:20:53.441Z,3.36
2023-11-21T22:23:20.667Z,3.33
2023-11-21T22:25:48.301Z,3.30
2023-11-21T22:28:15.293Z,3.31
2023-11-21T22:30:42.421Z,3.29
2023-11-21T22:33:09.554Z,3.26
2023-11-21T22:35:36.647Z,3.25
2023-11-21T22:38:03.894Z,3.25
2023-11-21T22:40:30.997Z,3.25
2023-11-21T22:42:57.929Z,3.21
2023-11-21T22:45:25.268Z,3.20
2023-11-21T22:47:52.723Z,3.21
2023-11-21T22:50:19.864Z,3.20
2023-11-21T22:52:47.363Z,3.19
2023-11-21T22:55:15.771Z,3.17
2023-11-21T22:57:42.863Z,3.14
2023-11-21T23:00:13.699Z,3.14
2023-11-21T23:02:41.549Z,3.11
2023-11-21T23:05:11.072Z,3.11
2023-11-21T23:07:38.452Z,3.11
2023-11-21T23:10:08.602Z,3.11
2023-11-21T23:12:36.691Z,3.10
2023-11-21T23:15:04.187Z,3.10
2023-11-21T23:17:31.335Z,3.07
2023-11-21T23:19:58.480Z,3.08
2023-11-21T23:22:27.666Z,3.07
2023-11-21T23:24:54.610Z,3.07
2023-11-21T23:27:22.660Z,3.06
2023-11-21T23:29:54.579Z,3.01
2023-11-21T23:32:24.573Z,2.98
2023-11-21T23:34:51.866Z,2.95
2023-11-21T23:37:18.925Z,2.94
2023-11-21T23:39:46.010Z,2.92
2023-11-21T23:42:13.070Z,2.89
2023-11-21T23:44:40.283Z,2.91
2023-11-21T23:47:07.293Z,2.87
2023-11-21T23:49:36.316Z,2.87
2023-11-21T23:52:04.084Z,2.82
2023-11-21T23:54:31.206Z,2.80
2023-11-21T23:56:59.189Z,2.75
2023-11-21T23:59:26.381Z,2.71
